sensor_id;sensor_type;location;lat;lon;timestamp;pressure;altitude;pressure_sealevel;temperature;humidity
63582;BME280;49727;51.078;17.066;2023-04-20T00:13:06;100525.47;;;6.19;68.46
63582;BME280;49727;51.078;17.066;2023-04-20T00:28:06;100536.34;;;6.16;68.52
63582;BME280;49727;51.078;17.066;2023-04-20T00:43:11;100531.16;;;6.04;69.18
63582;BME280;49727;51.078;17.066;2023-04-20T00:58:11;100526.72;;;6.15;68.90
63582;BME280;49727;51.078;17.066;2023-04-20T01:13:12;100518.25;;;6.21;69.40
63582;BME280;49727;51.078;17.066;2023-04-20T01:28:12;100530.91;;;6.17;68.97
63582;BME280;49727;51.078;17.066;2023-04-20T01:43:15;100507.66;;;6.11;69.66
63582;BME280;49727;51.078;17.066;2023-04-20T01:58:16;100499.81;;;6.09;69.41
63582;BME280;49727;51.078;17.066;2023-04-20T02:13:16;100492.03;;;6.08;69.40
63582;BME280;49727;51.078;17.066;2023-04-20T02:28:17;100506.50;;;6.04;69.97
63582;BME280;49727;51.078;17.066;2023-04-20T02:43:17;100492.94;;;5.97;69.52
63582;BME280;49727;51.078;17.066;2023-04-20T02:58:18;100488.03;;;5.92;70.37
63582;BME280;49727;51.078;17.066;2023-04-20T03:13:18;100486.06;;;5.85;70.34
63582;BME280;49727;51.078;17.066;2023-04-20T03:28:18;100484.56;;;5.92;70.40
63582;BME280;49727;51.078;17.066;2023-04-20T03:43:19;100499.94;;;5.98;70.50
63582;BME280;49727;51.078;17.066;2023-04-20T03:58:19;100501.19;;;6.04;70.40
63582;BME280;49727;51.078;17.066;2023-04-20T04:13:20;100514.34;;;6.15;71.01
63582;BME280;49727;51.078;17.066;2023-04-20T04:28:21;100508.53;;;6.31;70.21
63582;BME280;49727;51.078;17.066;2023-04-20T04:43:21;100524.22;;;6.54;70.51
63582;BME280;49727;51.078;17.066;2023-04-20T04:58:23;100522.16;;;6.77;70.35
63582;BME280;49727;51.078;17.066;2023-04-20T05:13:24;100526.50;;;6.88;69.82
63582;BME280;49727;51.078;17.066;2023-04-20T05:28:24;100533.34;;;7.00;69.74
63582;BME280;49727;51.078;17.066;2023-04-20T05:43:24;100547.97;;;7.04;69.46
63582;BME280;49727;51.078;17.066;2023-04-20T05:58:25;100548.41;;;7.29;69.93
63582;BME280;49727;51.078;17.066;2023-04-20T06:13:26;100570.28;;;7.51;70.09
63582;BME280;49727;51.078;17.066;2023-04-20T06:28:26;100577.50;;;7.88;70.21
63582;BME280;49727;51.078;17.066;2023-04-20T06:43:29;100584.81;;;8.13;69.31
63582;BME280;49727;51.078;17.066;2023-04-20T06:58:30;100593.41;;;8.73;69.39
63582;BME280;49727;51.078;17.066;2023-04-20T07:13:30;100587.47;;;9.25;68.61
63582;BME280;49727;51.078;17.066;2023-04-20T07:28:31;100593.66;;;9.70;67.83
63582;BME280;49727;51.078;17.066;2023-04-20T07:43:31;100610.78;;;10.20;67.83
63582;BME280;49727;51.078;17.066;2023-04-20T07:58:32;100609.94;;;10.45;66.81
63582;BME280;49727;51.078;17.066;2023-04-20T08:13:36;100600.06;;;10.64;65.91
63582;BME280;49727;51.078;17.066;2023-04-20T08:28:37;100608.88;;;11.24;65.01
63582;BME280;49727;51.078;17.066;2023-04-20T08:43:37;100618.25;;;11.77;65.42
63582;BME280;49727;51.078;17.066;2023-04-20T08:58:38;100611.28;;;12.89;63.98
63582;BME280;49727;51.078;17.066;2023-04-20T09:13:41;100617.91;;;13.94;62.08
63582;BME280;49727;51.078;17.066;2023-04-20T09:28:41;100625.19;;;14.68;60.11
63582;BME280;49727;51.078;17.066;2023-04-20T09:43:42;100615.25;;;17.85;55.00
63582;BME280;49727;51.078;17.066;2023-04-20T09:58:44;100601.88;;;24.19;47.90
63582;BME280;49727;51.078;17.066;2023-04-20T10:13:45;100598.56;;;25.97;35.23
63582;BME280;49727;51.078;17.066;2023-04-20T10:28:46;100592.53;;;20.87;39.24
63582;BME280;49727;51.078;17.066;2023-04-20T10:43:46;100579.88;;;19.88;41.74
63582;BME280;49727;51.078;17.066;2023-04-20T10:58:47;100564.31;;;25.42;35.73
63582;BME280;49727;51.078;17.066;2023-04-20T11:13:48;100559.41;;;27.24;31.02
63582;BME280;49727;51.078;17.066;2023-04-20T11:28:52;100542.03;;;25.98;31.63
63582;BME280;49727;51.078;17.066;2023-04-20T11:43:53;100538.16;;;25.46;31.81
63582;BME280;49727;51.078;17.066;2023-04-20T11:58:53;100525.91;;;25.48;31.88
63582;BME280;49727;51.078;17.066;2023-04-20T12:13:54;100505.97;;;26.44;30.62
63582;BME280;49727;51.078;17.066;2023-04-20T12:28:56;100479.81;;;27.25;29.81
63582;BME280;49727;51.078;17.066;2023-04-20T12:43:56;100483.59;;;25.89;29.40
63582;BME280;49727;51.078;17.066;2023-04-20T12:58:56;100474.88;;;24.79;30.52
63582;BME280;49727;51.078;17.066;2023-04-20T13:13:57;100465.09;;;21.48;33.91
63582;BME280;49727;51.078;17.066;2023-04-20T13:28:57;100462.53;;;20.45;37.07
63582;BME280;49727;51.078;17.066;2023-04-20T13:43:59;100448.00;;;21.36;36.84
63582;BME280;49727;51.078;17.066;2023-04-20T13:58:59;100460.34;;;20.35;37.42
63582;BME280;49727;51.078;17.066;2023-04-20T14:14:00;100452.47;;;19.16;39.84
63582;BME280;49727;51.078;17.066;2023-04-20T14:29:00;100453.44;;;18.57;41.13
63582;BME280;49727;51.078;17.066;2023-04-20T14:44:00;100439.78;;;18.84;41.44
63582;BME280;49727;51.078;17.066;2023-04-20T14:59:01;100426.19;;;19.04;41.12
63582;BME280;49727;51.078;17.066;2023-04-20T15:14:01;100428.84;;;18.08;42.14
63582;BME280;49727;51.078;17.066;2023-04-20T15:29:02;100431.00;;;17.66;43.36
63582;BME280;49727;51.078;17.066;2023-04-20T15:44:02;100424.38;;;17.69;43.83
63582;BME280;49727;51.078;17.066;2023-04-20T15:59:02;100431.03;;;17.46;44.01
63582;BME280;49727;51.078;17.066;2023-04-20T16:14:03;100423.03;;;16.99;45.00
63582;BME280;49727;51.078;17.066;2023-04-20T16:29:03;100432.66;;;16.53;45.97
63582;BME280;49727;51.078;17.066;2023-04-20T16:44:04;100431.69;;;16.13;47.14
63582;BME280;49727;51.078;17.066;2023-04-20T16:59:04;100427.78;;;15.73;47.86
63582;BME280;49727;51.078;17.066;2023-04-20T17:14:05;100431.19;;;15.26;49.30
63582;BME280;49727;51.078;17.066;2023-04-20T17:29:06;100447.25;;;14.76;50.29
63582;BME280;49727;51.078;17.066;2023-04-20T17:44:06;100453.78;;;14.30;52.08
63582;BME280;49727;51.078;17.066;2023-04-20T17:59:07;100447.00;;;13.67;53.29
63582;BME280;49727;51.078;17.066;2023-04-20T18:14:08;100441.22;;;13.41;54.62
63582;BME280;49727;51.078;17.066;2023-04-20T18:29:08;100463.66;;;13.01;55.45
63582;BME280;49727;51.078;17.066;2023-04-20T18:44:09;100462.97;;;12.76;56.42
63582;BME280;49727;51.078;17.066;2023-04-20T18:59:09;100472.66;;;12.23;57.57
63582;BME280;49727;51.078;17.066;2023-04-20T19:14:10;100471.78;;;11.82;58.62
63582;BME280;49727;51.078;17.066;2023-04-20T19:29:10;100473.34;;;11.52;59.52
63582;BME280;49727;51.078;17.066;2023-04-20T19:44:11;100470.69;;;11.19;60.75
63582;BME280;49727;51.078;17.066;2023-04-20T19:59:13;100473.88;;;10.98;61.85
63582;BME280;49727;51.078;17.066;2023-04-20T20:14:15;100471.69;;;10.77;62.32
63582;BME280;49727;51.078;17.066;2023-04-20T20:29:15;100472.97;;;10.56;63.12
63582;BME280;49727;51.078;17.066;2023-04-20T20:44:16;100467.25;;;10.35;64.05
63582;BME280;49727;51.078;17.066;2023-04-20T20:59:16;100477.97;;;10.08;64.78
63582;BME280;49727;51.078;17.066;2023-04-20T21:14:17;100476.53;;;9.88;65.31
63582;BME280;49727;51.078;17.066;2023-04-20T21:29:17;100481.72;;;9.63;65.73
63582;BME280;49727;51.078;17.066;2023-04-20T21:44:17;100475.72;;;9.35;66.48
63582;BME280;49727;51.078;17.066;2023-04-20T21:59:18;100470.19;;;9.10;67.17
63582;BME280;49727;51.078;17.066;2023-04-20T22:14:18;100474.16;;;8.88;67.66
63582;BME280;49727;51.078;17.066;2023-04-20T22:29:19;100460.50;;;8.64;68.58
63582;BME280;49727;51.078;17.066;2023-04-20T22:44:19;100459.22;;;8.51;68.94
63582;BME280;49727;51.078;17.066;2023-04-20T22:59:19;100454.00;;;8.31;69.52
63582;BME280;49727;51.078;17.066;2023-04-20T23:14:19;100455.31;;;8.17;69.70
63582;BME280;49727;51.078;17.066;2023-04-20T23:29:22;100446.13;;;8.11;70.70
63582;BME280;49727;51.078;17.066;2023-04-20T23:44:23;100453.78;;;7.87;70.73
63582;BME280;49727;51.078;17.066;2023-04-20T23:59:23;100434.34;;;7.68;71.82
